Time;durP1;ratioP1;P1;durP2;ratioP2;P2;SDS_P1;SDS_P2;PMS_P1;PMS_P2;Temp;Humidity;BMP_temperature;BMP_pressure;BME280_temperature;BME280_humidity;BME280_pressure;Samples;Min_cycle;Max_cycle;Signal;HPM_P1;HPM_P2
2022/12/11 00:00:26;;;;;;;7.90;3.53;;;;;;;;;;5056478;28;20040;-78
2022/12/11 00:03:11;;;;;;;5.45;3.10;;;;;;;;;;5056388;28;20041;-78
2022/12/11 00:05:57;;;;;;;8.27;4.25;;;;;;;;;;5056189;28;20053;-78
2022/12/11 00:08:43;;;;;;;9.82;4.72;;;;;;;;;;5056385;28;20049;-81
2022/12/11 00:11:28;;;;;;;9.38;5.38;;;;;;;;;;5056584;28;20041;-78
2022/12/11 00:14:14;;;;;;;5.68;2.72;;;;;;;;;;5056374;28;20045;-81
2022/12/11 00:16:59;;;;;;;4.00;2.67;;;;;;;;;;5056244;28;20390;-81
2022/12/11 00:19:45;;;;;;;6.82;2.58;;;;;;;;;;5056439;28;20502;-81
2022/12/11 00:22:30;;;;;;;6.95;3.25;;;;;;;;;;5079853;28;20049;-78
2022/12/11 00:25:16;;;;;;;18.98;11.32;;;;;;;;;;5053379;28;20041;-78
2022/12/11 00:28:02;;;;;;;5.75;3.38;;;;;;;;;;5062807;28;20041;-77
2022/12/11 00:30:47;;;;;;;8.57;3.35;;;;;;;;;;5075936;28;20044;-77
2022/12/11 00:33:33;;;;;;;6.63;3.17;;;;;;;;;;5082713;28;20036;-80
2022/12/11 00:36:22;;;;;;;10.27;5.00;;;;;;;;;;5082423;28;20044;-77
2022/12/11 00:39:07;;;;;;;3.65;1.98;;;;;;;;;;5082689;28;20405;-77
2022/12/11 00:41:53;;;;;;;1.88;1.38;;;;;;;;;;5082318;28;20040;-76
2022/12/11 00:44:38;;;;;;;4.97;2.47;;;;;;;;;;5075592;28;20053;-78
2022/12/11 00:47:24;;;;;;;8.70;3.70;;;;;;;;;;5082881;28;20044;-81
2022/12/11 00:50:11;;;;;;;7.20;4.18;;;;;;;;;;5060547;28;20048;-82
2022/12/11 00:52:56;;;;;;;13.18;4.85;;;;;;;;;;5074866;28;20041;-81
2022/12/11 00:55:43;;;;;;;6.45;3.47;;;;;;;;;;5067106;28;20036;-81
2022/12/11 00:58:28;;;;;;;4.50;2.30;;;;;;;;;;5060731;28;20053;-80
2022/12/11 01:01:20;;;;;;;4.82;2.33;;;;;;;;;;5075589;28;20053;-80
2022/12/11 01:04:05;;;;;;;9.05;3.05;;;;;;;;;;5081847;28;20048;-81
2022/12/11 01:06:51;;;;;;;3.40;1.83;;;;;;;;;;5081915;28;20037;-80
2022/12/11 01:12:40;;;;;;;1.58;1.48;;;;;;;;;;5081939;28;20036;-80
2022/12/11 01:15:31;;;;;;;1.83;1.20;;;;;;;;;;5053020;28;20049;-80
2022/12/11 01:18:16;;;;;;;1.95;0.88;;;;;;;;;;5074908;28;20037;-81
2022/12/11 01:21:10;;;;;;;1.65;0.77;;;;;;;;;;5081310;28;20390;-81
2022/12/11 01:23:55;;;;;;;1.30;0.95;;;;;;;;;;5074762;28;20036;-80
2022/12/11 01:26:41;;;;;;;3.03;1.23;;;;;;;;;;5081227;28;20048;-82
2022/12/11 01:29:26;;;;;;;4.05;1.38;;;;;;;;;;5075099;28;20049;-82
2022/12/11 01:32:12;;;;;;;1.65;1.20;;;;;;;;;;5074659;28;20421;-81
2022/12/11 01:34:58;;;;;;;3.10;1.17;;;;;;;;;;5075062;28;20048;-81
2022/12/11 01:37:44;;;;;;;1.15;0.93;;;;;;;;;;5074679;28;20477;-82
2022/12/11 01:40:30;;;;;;;3.40;1.88;;;;;;;;;;5074827;28;20044;-79
2022/12/11 01:43:16;;;;;;;1.30;1.08;;;;;;;;;;5081188;28;20044;-79
2022/12/11 01:46:01;;;;;;;1.20;0.90;;;;;;;;;;5080750;28;20045;-81
2022/12/11 01:48:47;;;;;;;2.40;1.40;;;;;;;;;;5074448;28;20398;-81
2022/12/11 01:51:37;;;;;;;1.70;1.23;;;;;;;;;;5074294;28;20044;-81
2022/12/11 01:54:26;;;;;;;1.25;1.02;;;;;;;;;;5073972;28;20045;-81
2022/12/11 01:57:13;;;;;;;1.95;1.25;;;;;;;;;;5080886;28;20044;-81
2022/12/11 01:59:59;;;;;;;1.88;1.17;;;;;;;;;;5080818;28;20037;-81
2022/12/11 02:02:44;;;;;;;1.05;0.63;;;;;;;;;;5065772;28;20044;-81
2022/12/11 02:05:30;;;;;;;2.10;1.40;;;;;;;;;;5073345;28;20052;-80
2022/12/11 02:08:16;;;;;;;3.25;1.20;;;;;;;;;;5074070;28;20040;-81
2022/12/11 02:11:16;;;;;;;2.05;1.17;;;;;;;;;;5080649;28;20044;-81
2022/12/11 02:14:12;;;;;;;2.22;1.23;;;;;;;;;;5073785;28;20490;-81
2022/12/11 02:17:23;;;;;;;2.63;1.40;;;;;;;;;;5058902;28;20048;-81
2022/12/11 02:20:29;;;;;;;3.13;1.23;;;;;;;;;;5073978;28;20385;-81
2022/12/11 02:23:42;;;;;;;1.58;1.10;;;;;;;;;;5073844;28;20049;-80
2022/12/11 02:27:06;;;;;;;3.63;1.20;;;;;;;;;;5073304;28;20057;-82
2022/12/11 02:30:09;;;;;;;1.98;1.30;;;;;;;;;;5074044;28;20049;-81
2022/12/11 02:32:57;;;;;;;1.25;1.10;;;;;;;;;;5074293;28;20041;-81
2022/12/11 02:35:44;;;;;;;1.75;1.50;;;;;;;;;;5105563;28;20032;-79
2022/12/11 02:38:35;;;;;;;3.20;1.50;;;;;;;;;;5073664;28;20402;-81
2022/12/11 02:41:23;;;;;;;1.85;1.10;;;;;;;;;;5073524;28;20048;-80
2022/12/11 02:44:11;;;;;;;1.20;0.80;;;;;;;;;;5065124;28;20048;-82
2022/12/11 02:46:57;;;;;;;2.75;1.67;;;;;;;;;;5064837;28;20398;-81
2022/12/11 02:49:46;;;;;;;1.88;1.20;;;;;;;;;;5073584;28;20033;-81
2022/12/11 02:52:33;;;;;;;1.02;0.95;;;;;;;;;;5073496;28;20474;-81
2022/12/11 02:55:19;;;;;;;3.53;1.50;;;;;;;;;;5073411;28;20044;-81
2022/12/11 02:58:12;;;;;;;309.80;104.43;;;;;;;;;;5073727;28;20044;-81
2022/12/11 03:00:58;;;;;;;458.75;233.93;;;;;;;;;;5073670;28;20044;-82
2022/12/11 03:03:44;;;;;;;10.15;6.63;;;;;;;;;;5073509;28;20040;-81
2022/12/11 03:06:35;;;;;;;66.97;36.08;;;;;;;;;;5079960;28;20049;-81
2022/12/11 03:09:21;;;;;;;61.00;32.83;;;;;;;;;;5073632;28;20036;-82
2022/12/11 03:12:12;;;;;;;26.63;13.65;;;;;;;;;;5073317;28;20052;-82
2022/12/11 03:14:59;;;;;;;5.57;3.45;;;;;;;;;;5073914;28;20048;-81
2022/12/11 03:18:02;;;;;;;3.17;2.10;;;;;;;;;;5084239;28;20052;-82
2022/12/11 03:21:16;;;;;;;4.65;1.63;;;;;;;;;;5083999;28;20052;-82
2022/12/11 03:24:01;;;;;;;47.78;24.75;;;;;;;;;;5083835;28;20048;-81
2022/12/11 03:26:55;;;;;;;7.38;5.28;;;;;;;;;;5077006;28;20088;-81
2022/12/11 03:29:52;;;;;;;20.23;13.88;;;;;;;;;;5068923;28;20401;-82
2022/12/11 03:32:57;;;;;;;9.13;6.13;;;;;;;;;;5077376;28;20052;-81
2022/12/11 03:35:47;;;;;;;4.32;2.10;;;;;;;;;;5083624;28;20049;-82
2022/12/11 03:38:40;;;;;;;2.25;1.50;;;;;;;;;;5077041;28;20037;-82
2022/12/11 03:41:26;;;;;;;2.42;1.42;;;;;;;;;;5076930;28;20048;-82
2022/12/11 03:44:12;;;;;;;1.58;1.20;;;;;;;;;;5061692;28;20048;-82
2022/12/11 03:47:00;;;;;;;1.70;1.40;;;;;;;;;;5076536;28;20037;-82
2022/12/11 03:49:47;;;;;;;2.38;1.48;;;;;;;;;;5083378;28;20040;-82
2022/12/11 03:52:32;;;;;;;1.80;1.33;;;;;;;;;;5076996;28;20482;-83
2022/12/11 03:55:20;;;;;;;2.78;2.03;;;;;;;;;;5054455;28;20048;-83
2022/12/11 03:58:05;;;;;;;2.63;1.73;;;;;;;;;;5076394;28;20045;-83
2022/12/11 04:00:51;;;;;;;2.67;1.60;;;;;;;;;;5076483;28;20049;-82
2022/12/11 04:03:37;;;;;;;4.07;2.20;;;;;;;;;;5076462;28;20413;-82
2022/12/11 04:06:22;;;;;;;4.82;2.58;;;;;;;;;;5076088;28;20497;-82
2022/12/11 04:09:07;;;;;;;5.38;3.20;;;;;;;;;;5076043;28;20037;-82
2022/12/11 04:11:52;;;;;;;9.45;4.63;;;;;;;;;;5083031;28;20032;-82
2022/12/11 04:26:52;;;;;;;5.50;1.77;;;;;;;;;;5074414;28;20041;-81
2022/12/11 04:29:38;;;;;;;4.15;2.33;;;;;;;;;;5076346;28;20174;-80
2022/12/11 04:32:23;;;;;;;2.22;1.63;;;;;;;;;;5075942;28;20044;-81
2022/12/11 04:35:09;;;;;;;2.47;1.77;;;;;;;;;;5076071;28;20390;-81
2022/12/11 04:37:54;;;;;;;5.15;2.38;;;;;;;;;;5075793;28;20044;-81
2022/12/11 04:40:40;;;;;;;4.93;3.03;;;;;;;;;;5067519;28;20057;-81
2022/12/11 04:43:26;;;;;;;4.97;3.33;;;;;;;;;;5082624;28;20044;-80
2022/12/11 04:46:18;;;;;;;5.72;3.88;;;;;;;;;;5083343;28;20029;-81
2022/12/11 04:49:04;;;;;;;4.68;3.20;;;;;;;;;;5096037;28;20041;-84
2022/12/11 04:51:49;;;;;;;4.93;2.95;;;;;;;;;;5077878;28;20040;-82
2022/12/11 04:54:35;;;;;;;2.03;1.27;;;;;;;;;;5061424;28;20044;-80
2022/12/11 04:57:20;;;;;;;6.18;3.08;;;;;;;;;;5075960;28;20056;-79
2022/12/11 05:00:09;;;;;;;7.32;5.25;;;;;;;;;;5075239;28;20040;-80
2022/12/11 05:02:55;;;;;;;4.82;2.70;;;;;;;;;;5075587;28;20041;-80
2022/12/11 05:05:40;;;;;;;36.95;17.08;;;;;;;;;;5075035;28;20044;-82
2022/12/11 05:08:26;;;;;;;25.83;12.07;;;;;;;;;;5066750;28;20045;-82
2022/12/11 05:11:13;;;;;;;55.47;23.85;;;;;;;;;;5075186;28;20052;-80
2022/12/11 05:13:59;;;;;;;80.78;30.83;;;;;;;;;;5074767;28;20048;-83
2022/12/11 05:16:44;;;;;;;78.70;30.00;;;;;;;;;;5081782;28;20398;-81
2022/12/11 05:19:30;;;;;;;18.67;9.75;;;;;;;;;;5075088;28;20049;-80
2022/12/11 05:22:16;;;;;;;4.82;3.38;;;;;;;;;;5081644;28;20049;-80
2022/12/11 05:25:01;;;;;;;9.20;5.45;;;;;;;;;;5075029;28;20060;-80
2022/12/11 05:27:46;;;;;;;6.43;3.97;;;;;;;;;;5074571;28;20045;-81
2022/12/11 05:30:31;;;;;;;6.00;2.63;;;;;;;;;;5075222;28;20057;-81
2022/12/11 05:33:17;;;;;;;7.72;4.97;;;;;;;;;;5081678;28;20041;-80
2022/12/11 05:36:03;;;;;;;11.77;6.80;;;;;;;;;;5074705;28;20040;-81
2022/12/11 05:38:48;;;;;;;6.75;4.82;;;;;;;;;;5059392;28;20048;-82
2022/12/11 05:41:33;;;;;;;3.75;2.80;;;;;;;;;;5074865;28;20036;-82
2022/12/11 05:44:19;;;;;;;2.00;1.83;;;;;;;;;;5074504;28;20044;-83
2022/12/11 05:47:04;;;;;;;4.15;2.40;;;;;;;;;;5058825;28;20044;-84
2022/12/11 05:49:49;;;;;;;3.40;3.03;;;;;;;;;;5075900;28;20478;-82
2022/12/11 05:52:35;;;;;;;3.70;2.28;;;;;;;;;;5075424;28;20048;-83
2022/12/11 05:55:20;;;;;;;6.85;3.30;;;;;;;;;;5051804;28;20037;-82
2022/12/11 05:58:06;;;;;;;23.63;13.00;;;;;;;;;;5074134;28;20040;-82
2022/12/11 06:00:51;;;;;;;4.95;3.72;;;;;;;;;;5065985;28;20040;-81
2022/12/11 06:03:37;;;;;;;1.88;1.48;;;;;;;;;;5074173;28;20041;-82
2022/12/11 06:06:23;;;;;;;4.10;2.22;;;;;;;;;;5073499;28;20049;-82
2022/12/11 06:09:15;;;;;;;5.18;3.10;;;;;;;;;;5073780;28;20053;-82
2022/12/11 06:12:00;;;;;;;5.32;2.45;;;;;;;;;;5073796;28;20474;-82
2022/12/11 06:14:46;;;;;;;6.53;3.80;;;;;;;;;;5073912;28;20048;-82
2022/12/11 06:17:33;;;;;;;7.28;3.17;;;;;;;;;;5073860;28;20481;-81
2022/12/11 06:20:18;;;;;;;12.10;5.97;;;;;;;;;;5066207;28;20045;-83
2022/12/11 06:23:04;;;;;;;7.38;4.05;;;;;;;;;;5073310;28;20070;-83
2022/12/11 06:25:49;;;;;;;8.00;4.78;;;;;;;;;;5057627;28;20482;-83
2022/12/11 06:28:35;;;;;;;11.25;6.82;;;;;;;;;;5073827;28;20397;-80
2022/12/11 06:31:20;;;;;;;15.43;9.20;;;;;;;;;;5080795;28;20044;-80
2022/12/11 06:34:07;;;;;;;5.68;3.58;;;;;;;;;;5079879;28;20041;-81
2022/12/11 06:36:52;;;;;;;5.97;2.78;;;;;;;;;;5080093;28;20482;-80
2022/12/11 06:39:38;;;;;;;5.90;3.67;;;;;;;;;;5073202;28;20052;-80
2022/12/11 06:42:23;;;;;;;2.50;1.95;;;;;;;;;;5079818;28;20048;-80
2022/12/11 06:45:10;;;;;;;2.00;1.73;;;;;;;;;;5073235;28;20052;-80
2022/12/11 06:47:57;;;;;;;0.98;0.98;;;;;;;;;;5073290;28;20049;-80
2022/12/11 06:50:42;;;;;;;2.95;1.88;;;;;;;;;;5073144;28;20049;-79
2022/12/11 06:53:28;;;;;;;1.42;1.33;;;;;;;;;;5073164;28;20044;-80
2022/12/11 06:56:14;;;;;;;3.67;2.40;;;;;;;;;;5080822;28;20040;-80
2022/12/11 06:58:59;;;;;;;1.27;1.10;;;;;;;;;;5083792;28;20036;-79
2022/12/11 07:01:45;;;;;;;3.47;2.13;;;;;;;;;;5092600;28;20405;-79
2022/12/11 07:04:30;;;;;;;2.50;1.75;;;;;;;;;;5074419;28;20048;-80
2022/12/11 07:07:16;;;;;;;2.75;1.85;;;;;;;;;;5072946;28;20041;-80
2022/12/11 07:10:02;;;;;;;4.68;3.38;;;;;;;;;;5073182;28;20053;-79
2022/12/11 07:12:47;;;;;;;5.70;4.03;;;;;;;;;;5072976;28;20037;-81
2022/12/11 07:15:32;;;;;;;3.75;2.50;;;;;;;;;;5073267;28;20053;-81
2022/12/11 07:18:18;;;;;;;6.85;4.35;;;;;;;;;;5079785;28;20401;-80
2022/12/11 07:21:08;;;;;;;5.95;3.58;;;;;;;;;;5073206;28;20049;-81
2022/12/11 07:23:57;;;;;;;7.20;2.65;;;;;;;;;;5073679;28;20037;-80
2022/12/11 07:26:43;;;;;;;2.28;1.70;;;;;;;;;;5073091;28;20044;-80
2022/12/11 07:29:28;;;;;;;2.00;1.80;;;;;;;;;;5080211;28;20044;-81
2022/12/11 07:32:14;;;;;;;4.57;3.30;;;;;;;;;;5058257;28;20486;-80
2022/12/11 07:34:58;;;;;;;6.15;3.83;;;;;;;;;;5072560;28;20048;-79
2022/12/11 07:37:44;;;;;;;3.25;2.38;;;;;;;;;;5073238;28;20477;-80
2022/12/11 07:40:30;;;;;;;7.50;3.92;;;;;;;;;;5073208;28;20040;-80
2022/12/11 07:43:16;;;;;;;6.82;3.53;;;;;;;;;;5072884;28;20049;-82
2022/12/11 07:46:11;;;;;;;2.10;1.90;;;;;;;;;;5073477;28;20041;-81
2022/12/11 07:48:57;;;;;;;6.63;3.97;;;;;;;;;;5072880;28;20044;-79
2022/12/11 07:51:42;;;;;;;4.90;2.95;;;;;;;;;;5073134;28;20482;-81
2022/12/11 07:54:28;;;;;;;4.03;3.05;;;;;;;;;;5072638;28;20041;-79
2022/12/11 07:57:13;;;;;;;8.32;3.45;;;;;;;;;;5079698;28;20044;-76
2022/12/11 07:59:59;;;;;;;7.35;3.63;;;;;;;;;;5073358;28;20056;-79
2022/12/11 08:02:44;;;;;;;10.57;4.90;;;;;;;;;;5074705;28;20049;-76
2022/12/11 08:05:30;;;;;;;18.33;7.07;;;;;;;;;;5076425;28;20049;-75
2022/12/11 08:08:16;;;;;;;26.65;13.30;;;;;;;;;;5076556;28;20053;-78
2022/12/11 08:11:02;;;;;;;24.02;11.40;;;;;;;;;;5076586;28;20486;-75
2022/12/11 08:13:48;;;;;;;16.38;6.75;;;;;;;;;;5077268;28;20401;-81
2022/12/11 08:16:33;;;;;;;14.05;7.88;;;;;;;;;;5076240;28;20040;-79
2022/12/11 08:19:19;;;;;;;2.30;2.10;;;;;;;;;;5076144;28;20049;-77
2022/12/11 08:22:04;;;;;;;5.75;2.65;;;;;;;;;;5076168;28;20041;-77
2022/12/11 08:24:50;;;;;;;7.45;5.20;;;;;;;;;;5076289;28;20041;-79
2022/12/11 08:27:36;;;;;;;12.38;7.35;;;;;;;;;;5075848;28;20041;-77
2022/12/11 08:30:21;;;;;;;6.43;4.30;;;;;;;;;;5076026;28;20049;-79
2022/12/11 08:33:07;;;;;;;9.38;5.45;;;;;;;;;;5068022;28;20040;-80
2022/12/11 08:35:52;;;;;;;7.82;4.15;;;;;;;;;;5075854;28;20045;-77
2022/12/11 08:38:39;;;;;;;5.10;3.42;;;;;;;;;;5075852;28;20037;-77
2022/12/11 08:41:27;;;;;;;5.72;3.72;;;;;;;;;;5077201;28;20041;-79
2022/12/11 08:44:12;;;;;;;5.00;3.65;;;;;;;;;;5082562;28;20040;-76
2022/12/11 08:46:58;;;;;;;5.10;2.67;;;;;;;;;;5075508;28;20048;-78
2022/12/11 08:49:44;;;;;;;6.60;3.88;;;;;;;;;;5075750;28;20056;-77
2022/12/11 08:52:32;;;;;;;5.57;3.70;;;;;;;;;;5078022;28;20037;-77
2022/12/11 08:55:19;;;;;;;7.45;4.38;;;;;;;;;;5075901;28;20033;-75
2022/12/11 08:58:04;;;;;;;4.05;2.83;;;;;;;;;;5081992;28;20036;-75
2022/12/11 09:00:50;;;;;;;4.40;3.25;;;;;;;;;;5075296;28;20474;-75
2022/12/11 09:03:36;;;;;;;5.03;3.17;;;;;;;;;;5082125;28;20045;-76
2022/12/11 09:06:22;;;;;;;4.72;3.33;;;;;;;;;;5074886;28;20045;-76
2022/12/11 09:09:07;;;;;;;4.80;2.97;;;;;;;;;;5075533;28;20386;-75
2022/12/11 09:11:53;;;;;;;3.47;2.72;;;;;;;;;;5075127;28;20044;-75
2022/12/11 09:14:39;;;;;;;5.90;3.60;;;;;;;;;;5092238;28;20529;-74
2022/12/11 09:17:24;;;;;;;9.23;5.60;;;;;;;;;;5078339;28;20044;-75
2022/12/11 09:20:10;;;;;;;4.88;3.35;;;;;;;;;;5066918;28;20390;-76
2022/12/11 09:22:55;;;;;;;8.27;3.97;;;;;;;;;;5081681;28;20053;-78
2022/12/11 09:25:41;;;;;;;4.57;3.35;;;;;;;;;;5076643;28;20040;-76
2022/12/11 09:28:26;;;;;;;8.65;5.93;;;;;;;;;;5075076;28;20044;-76
2022/12/11 09:31:22;;;;;;;9.30;4.93;;;;;;;;;;5074567;28;20053;-75
2022/12/11 09:34:11;;;;;;;14.60;6.70;;;;;;;;;;5075307;28;20056;-79
2022/12/11 09:36:58;;;;;;;7.88;5.18;;;;;;;;;;5075101;28;20425;-77
2022/12/11 09:39:43;;;;;;;4.70;3.08;;;;;;;;;;5075625;28;20048;-76
2022/12/11 09:42:50;;;;;;;5.70;4.10;;;;;;;;;;5075477;28;20044;-75
2022/12/11 09:45:35;;;;;;;5.60;3.42;;;;;;;;;;5082784;28;20076;-76
2022/12/11 09:48:24;;;;;;;8.38;4.82;;;;;;;;;;5074132;28;20052;-77
2022/12/11 09:51:23;;;;;;;7.22;4.07;;;;;;;;;;5074639;28;20048;-77
2022/12/11 09:54:12;;;;;;;2.10;1.60;;;;;;;;;;5073895;28;20052;-76
2022/12/11 09:57:36;;;;;;;2.92;2.35;;;;;;;;;;5074340;28;20041;-76
2022/12/11 10:00:38;;;;;;;4.60;3.38;;;;;;;;;;5081180;28;20040;-80
2022/12/11 10:03:32;;;;;;;14.68;8.13;;;;;;;;;;5066194;28;20044;-80
2022/12/11 10:06:30;;;;;;;8.38;2.92;;;;;;;;;;5074236;28;20045;-80
2022/12/11 10:09:27;;;;;;;4.05;3.00;;;;;;;;;;5074111;28;20041;-81
2022/12/11 10:12:38;;;;;;;5.25;3.53;;;;;;;;;;5080957;28;20053;-80
2022/12/11 10:15:30;;;;;;;4.82;3.05;;;;;;;;;;5073977;28;20052;-80
2022/12/11 10:18:21;;;;;;;2.45;1.92;;;;;;;;;;5074079;28;20040;-80
2022/12/11 10:21:08;;;;;;;5.65;4.15;;;;;;;;;;5073994;28;20044;-80
2022/12/11 10:23:59;;;;;;;9.63;4.18;;;;;;;;;;5074118;28;20049;-81
2022/12/11 10:26:53;;;;;;;6.78;4.10;;;;;;;;;;5073840;28;20048;-80
2022/12/11 10:29:39;;;;;;;5.20;2.83;;;;;;;;;;5074049;28;20041;-79
2022/12/11 10:32:49;;;;;;;4.97;3.45;;;;;;;;;;5073940;28;20040;-80
2022/12/11 10:35:48;;;;;;;9.95;5.63;;;;;;;;;;5073188;28;20458;-79
2022/12/11 10:38:41;;;;;;;9.32;5.60;;;;;;;;;;5073883;28;20398;-83
2022/12/11 10:41:38;;;;;;;9.25;5.85;;;;;;;;;;5073886;28;20343;-80
2022/12/11 10:44:29;;;;;;;4.95;3.20;;;;;;;;;;5073422;28;20040;-80
2022/12/11 10:47:17;;;;;;;8.98;4.20;;;;;;;;;;5073398;28;20044;-80
2022/12/11 10:50:03;;;;;;;7.30;4.63;;;;;;;;;;5065094;28;20049;-81
2022/12/11 10:52:51;;;;;;;8.38;4.55;;;;;;;;;;5073820;28;20493;-80
2022/12/11 10:55:47;;;;;;;5.35;4.40;;;;;;;;;;5073491;28;20044;-81
2022/12/11 10:58:36;;;;;;;4.75;3.80;;;;;;;;;;5079870;28;20473;-81
2022/12/11 11:01:24;;;;;;;4.93;4.15;;;;;;;;;;5073897;28;20378;-81
2022/12/11 11:04:19;;;;;;;5.88;4.30;;;;;;;;;;5073590;28;20044;-79
2022/12/11 11:07:14;;;;;;;10.40;5.28;;;;;;;;;;5073354;28;20044;-78
2022/12/11 11:10:15;;;;;;;11.73;8.05;;;;;;;;;;5073400;28;20045;-79
2022/12/11 11:13:01;;;;;;;5.78;3.85;;;;;;;;;;5073326;28;20040;-79
2022/12/11 11:15:47;;;;;;;7.53;5.20;;;;;;;;;;5073714;28;20032;-79
2022/12/11 11:18:33;;;;;;;7.25;4.70;;;;;;;;;;5080197;28;20048;-79
2022/12/11 11:21:24;;;;;;;8.93;4.70;;;;;;;;;;5073715;28;20040;-79
2022/12/11 11:24:25;;;;;;;4.35;3.00;;;;;;;;;;5073272;28;20044;-79
2022/12/11 11:27:29;;;;;;;6.68;4.45;;;;;;;;;;5078257;28;20048;-78
2022/12/11 11:30:24;;;;;;;13.45;6.13;;;;;;;;;;5088532;28;20045;-79
2022/12/11 11:33:21;;;;;;;10.52;5.63;;;;;;;;;;5073320;28;20049;-79
2022/12/11 11:36:19;;;;;;;11.40;6.35;;;;;;;;;;5074014;28;20040;-78
2022/12/11 11:39:07;;;;;;;22.35;10.63;;;;;;;;;;5076753;28;20048;-79
2022/12/11 11:42:19;;;;;;;14.70;6.80;;;;;;;;;;5076940;28;20477;-79
2022/12/11 11:45:15;;;;;;;10.93;6.65;;;;;;;;;;5076806;28;20048;-79
2022/12/11 11:48:44;;;;;;;9.82;4.93;;;;;;;;;;5076425;28;20044;-79
2022/12/11 11:51:43;;;;;;;13.98;6.40;;;;;;;;;;5015500;28;20058;-79
2022/12/11 11:54:35;;;;;;;7.93;4.88;;;;;;;;;;5076344;28;20052;-79
2022/12/11 11:57:59;;;;;;;6.40;3.92;;;;;;;;;;5083938;28;20052;-79
2022/12/11 12:00:45;;;;;;;4.78;3.20;;;;;;;;;;5082014;28;20045;-79
2022/12/11 12:03:30;;;;;;;19.92;9.88;;;;;;;;;;5076254;28;20489;-80
2022/12/11 12:06:32;;;;;;;27.63;12.90;;;;;;;;;;5076407;28;20045;-79
2022/12/11 12:09:21;;;;;;;9.10;6.10;;;;;;;;;;5076312;28;20037;-79
2022/12/11 12:12:24;;;;;;;21.23;9.70;;;;;;;;;;5076427;28;20414;-79
2022/12/11 12:15:21;;;;;;;17.40;9.15;;;;;;;;;;5076003;28;20389;-79
2022/12/11 12:18:16;;;;;;;23.10;11.38;;;;;;;;;;5076391;28;20049;-79
2022/12/11 12:21:13;;;;;;;23.65;11.10;;;;;;;;;;5076204;28;20053;-79
2022/12/11 12:23:58;;;;;;;14.95;7.78;;;;;;;;;;5076185;28;20049;-79
2022/12/11 12:26:57;;;;;;;23.58;11.38;;;;;;;;;;5075918;28;20041;-79
2022/12/11 12:30:15;;;;;;;27.92;13.05;;;;;;;;;;5075948;28;20048;-79
2022/12/11 12:33:19;;;;;;;17.27;6.45;;;;;;;;;;5070508;28;20409;-79
2022/12/11 12:36:11;;;;;;;12.13;7.00;;;;;;;;;;5076157;28;20037;-79
2022/12/11 12:39:15;;;;;;;20.52;10.95;;;;;;;;;;5076020;28;20052;-80
2022/12/11 12:42:18;;;;;;;27.27;14.90;;;;;;;;;;5076259;28;20482;-76
2022/12/11 12:45:16;;;;;;;24.92;11.95;;;;;;;;;;5076581;28;20060;-77
2022/12/11 12:48:01;;;;;;;21.00;11.43;;;;;;;;;;5081734;28;20040;-77
2022/12/11 12:50:48;;;;;;;24.48;12.75;;;;;;;;;;5076795;28;20052;-77
2022/12/11 12:53:36;;;;;;;27.48;12.65;;;;;;;;;;5076154;28;20131;-77
2022/12/11 12:56:23;;;;;;;22.60;11.35;;;;;;;;;;5083271;28;20044;-76
2022/12/11 12:59:23;;;;;;;19.15;9.00;;;;;;;;;;5076051;28;20041;-76
2022/12/11 13:02:15;;;;;;;19.35;10.10;;;;;;;;;;5075595;28;20041;-76
2022/12/11 13:05:18;;;;;;;18.63;9.48;;;;;;;;;;5075096;28;20045;-77
2022/12/11 13:08:04;;;;;;;21.77;10.95;;;;;;;;;;5075792;28;20036;-78
2022/12/11 13:10:59;;;;;;;7.80;4.10;;;;;;;;;;5075002;28;20052;-78
2022/12/11 13:14:02;;;;;;;12.32;7.43;;;;;;;;;;5075517;28;20040;-78
2022/12/11 13:16:51;;;;;;;22.80;12.23;;;;;;;;;;5074823;28;20049;-75
2022/12/11 13:19:36;;;;;;;21.60;10.27;;;;;;;;;;5081725;28;20425;-76
2022/12/11 13:22:23;;;;;;;11.95;7.50;;;;;;;;;;5075117;28;20048;-77
2022/12/11 13:25:28;;;;;;;10.77;5.93;;;;;;;;;;5074571;28;20052;-78
2022/12/11 13:28:39;;;;;;;22.23;11.05;;;;;;;;;;5075212;28;20401;-76
2022/12/11 13:31:38;;;;;;;21.02;10.30;;;;;;;;;;5081993;28;20036;-78
2022/12/11 13:34:30;;;;;;;15.82;8.20;;;;;;;;;;5075393;28;20389;-78
2022/12/11 13:37:26;;;;;;;20.38;11.63;;;;;;;;;;5075170;28;20474;-77
2022/12/11 13:40:22;;;;;;;22.08;10.90;;;;;;;;;;5102111;28;20052;-77
2022/12/11 13:43:17;;;;;;;14.35;7.50;;;;;;;;;;5076586;28;20389;-77
2022/12/11 13:46:04;;;;;;;10.50;5.70;;;;;;;;;;5081461;28;20037;-78
2022/12/11 13:49:02;;;;;;;18.83;6.88;;;;;;;;;;5074461;28;20044;-78
2022/12/11 13:51:53;;;;;;;21.50;9.38;;;;;;;;;;5074313;28;20402;-80
2022/12/11 13:54:46;;;;;;;7.05;4.40;;;;;;;;;;5075417;28;20482;-79
2022/12/11 13:57:32;;;;;;;16.10;8.68;;;;;;;;;;5080837;28;20040;-79
2022/12/11 14:00:24;;;;;;;15.25;7.43;;;;;;;;;;5073025;28;20036;-79
2022/12/11 14:03:10;;;;;;;12.73;5.57;;;;;;;;;;5080841;28;20434;-79
2022/12/11 14:05:55;;;;;;;28.80;12.65;;;;;;;;;;5081018;28;20048;-80
2022/12/11 14:08:45;;;;;;;23.73;11.30;;;;;;;;;;5073917;28;20044;-79
2022/12/11 14:11:35;;;;;;;24.20;12.75;;;;;;;;;;5073978;28;20390;-79
2022/12/11 14:14:41;;;;;;;23.50;10.90;;;;;;;;;;5073395;28;20486;-79
2022/12/11 14:17:32;;;;;;;10.77;5.20;;;;;;;;;;5068221;28;20044;-79
2022/12/11 14:20:26;;;;;;;21.48;11.55;;;;;;;;;;5073766;28;20040;-80
2022/12/11 14:23:18;;;;;;;27.45;14.27;;;;;;;;;;5073812;28;20493;-80
2022/12/11 14:26:25;;;;;;;18.52;10.32;;;;;;;;;;5074195;28;20048;-80
2022/12/11 14:29:26;;;;;;;26.45;13.07;;;;;;;;;;5073211;28;20044;-80
2022/12/11 14:32:37;;;;;;;29.58;13.38;;;;;;;;;;5080446;28;20040;-80
2022/12/11 14:35:32;;;;;;;31.88;13.20;;;;;;;;;;5080154;28;20052;-74
2022/12/11 14:38:24;;;;;;;33.38;16.55;;;;;;;;;;5073444;28;20044;-77
2022/12/11 14:41:20;;;;;;;33.03;14.25;;;;;;;;;;5074208;28;20044;-75
2022/12/11 14:44:11;;;;;;;36.92;16.98;;;;;;;;;;5073685;28;20053;-75
2022/12/11 14:47:02;;;;;;;29.83;17.35;;;;;;;;;;5080351;28;20049;-75
2022/12/11 14:50:17;;;;;;;26.73;15.30;;;;;;;;;;5073288;28;20041;-75
2022/12/11 14:53:24;;;;;;;32.85;17.83;;;;;;;;;;5040347;28;20048;-75
2022/12/11 14:56:19;;;;;;;36.75;17.20;;;;;;;;;;5073666;28;20040;-82
2022/12/11 14:59:18;;;;;;;44.17;24.52;;;;;;;;;;5073093;28;20049;-82
2022/12/11 15:02:22;;;;;;;34.00;20.02;;;;;;;;;;5080621;28;20045;-76
2022/12/11 15:05:17;;;;;;;38.37;20.53;;;;;;;;;;5072984;28;20085;-78
2022/12/11 15:08:09;;;;;;;39.97;22.13;;;;;;;;;;5073072;28;20052;-77
2022/12/11 15:11:16;;;;;;;45.95;22.67;;;;;;;;;;5073517;28;20041;-77
2022/12/11 15:14:03;;;;;;;33.05;18.33;;;;;;;;;;5077305;28;20052;-77
2022/12/11 15:16:50;;;;;;;39.78;21.67;;;;;;;;;;5077197;28;20056;-77
2022/12/11 15:19:36;;;;;;;39.58;21.20;;;;;;;;;;5083356;28;20406;-77
2022/12/11 15:22:25;;;;;;;46.20;23.67;;;;;;;;;;5076345;28;20044;-77
2022/12/11 15:25:37;;;;;;;36.25;20.58;;;;;;;;;;5083592;28;20465;-76
2022/12/11 15:28:40;;;;;;;30.92;18.42;;;;;;;;;;5083070;28;20044;-76
2022/12/11 15:31:28;;;;;;;26.55;16.08;;;;;;;;;;5083509;28;20048;-76
2022/12/11 15:34:22;;;;;;;28.75;16.38;;;;;;;;;;5076463;28;20489;-76
2022/12/11 15:37:35;;;;;;;42.03;22.10;;;;;;;;;;5083631;28;20478;-77
2022/12/11 15:40:21;;;;;;;36.97;19.75;;;;;;;;;;5076480;28;20450;-77
2022/12/11 15:43:07;;;;;;;54.30;26.85;;;;;;;;;;5076354;28;20394;-77
2022/12/11 15:45:53;;;;;;;41.88;24.60;;;;;;;;;;5068046;28;20482;-77
2022/12/11 15:48:39;;;;;;;47.72;24.77;;;;;;;;;;5079071;28;20040;-77
2022/12/11 15:51:26;;;;;;;40.85;23.48;;;;;;;;;;5096430;28;20044;-75
2022/12/11 15:54:12;;;;;;;64.43;30.75;;;;;;;;;;5076365;28;20045;-77
2022/12/11 15:57:02;;;;;;;73.80;28.73;;;;;;;;;;5076164;28;20056;-83
2022/12/11 15:59:50;;;;;;;45.22;22.13;;;;;;;;;;5076256;28;20044;-82
2022/12/11 16:02:35;;;;;;;53.10;30.02;;;;;;;;;;5075682;28;20048;-81
2022/12/11 16:05:21;;;;;;;12.40;7.15;;;;;;;;;;5082757;28;20052;-81
2022/12/11 16:08:11;;;;;;;7.40;5.30;;;;;;;;;;5075998;28;20041;-81
2022/12/11 16:10:56;;;;;;;15.85;8.63;;;;;;;;;;5075641;28;20040;-83
2022/12/11 16:13:42;;;;;;;31.88;15.90;;;;;;;;;;5076048;28;20485;-81
2022/12/11 16:16:27;;;;;;;19.52;10.20;;;;;;;;;;5075820;28;20045;-80
2022/12/11 16:19:13;;;;;;;18.73;11.48;;;;;;;;;;5076129;28;20052;-79
2022/12/11 16:21:59;;;;;;;19.90;9.00;;;;;;;;;;5076353;28;20041;-80
2022/12/11 16:24:44;;;;;;;25.60;13.48;;;;;;;;;;5081834;28;20044;-80
2022/12/11 16:27:29;;;;;;;14.55;9.52;;;;;;;;;;5076000;28;20040;-81
2022/12/11 16:30:15;;;;;;;41.00;19.30;;;;;;;;;;5075839;28;20040;-80
2022/12/11 16:33:02;;;;;;;19.92;10.90;;;;;;;;;;5075839;28;20052;-80
2022/12/11 16:35:48;;;;;;;21.75;10.63;;;;;;;;;;5082506;28;20049;-80
2022/12/11 16:38:34;;;;;;;12.82;7.80;;;;;;;;;;5075359;28;20045;-80
2022/12/11 16:41:21;;;;;;;18.48;11.25;;;;;;;;;;5075676;28;20036;-81
2022/12/11 16:44:06;;;;;;;26.50;15.18;;;;;;;;;;5080302;28;20052;-81
2022/12/11 16:46:53;;;;;;;27.45;15.07;;;;;;;;;;5074850;28;20049;-78
2022/12/11 16:49:40;;;;;;;13.32;6.78;;;;;;;;;;5074836;28;20401;-80
2022/12/11 16:52:27;;;;;;;25.30;9.88;;;;;;;;;;5074911;28;20045;-80
2022/12/11 16:55:13;;;;;;;27.45;14.02;;;;;;;;;;5074863;28;20044;-81
2022/12/11 16:58:00;;;;;;;28.63;14.82;;;;;;;;;;5075731;28;20041;-80
2022/12/11 17:00:46;;;;;;;33.83;15.63;;;;;;;;;;5074786;28;20040;-81
2022/12/11 17:03:31;;;;;;;33.10;16.25;;;;;;;;;;5075315;28;20370;-78